sensor_id;sensor_type;location;lat;lon;timestamp;P1;durP1;ratioP1;P2;durP2;ratioP2
3789;SDS011;1910;49.042;9.028;2023-08-12T00:00:15;10.23;;;4.47;;
3789;SDS011;1910;49.042;9.028;2023-08-12T00:02:41;6.57;;;4.57;;
3789;SDS011;1910;49.042;9.028;2023-08-12T00:05:08;5.90;;;4.60;;
3789;SDS011;1910;49.042;9.028;2023-08-12T00:07:36;10.27;;;4.80;;
3789;SDS011;1910;49.042;9.028;2023-08-12T00:10:02;5.80;;;3.53;;
3789;SDS011;1910;49.042;9.028;2023-08-12T00:12:29;6.90;;;4.50;;
3789;SDS011;1910;49.042;9.028;2023-08-12T00:14:58;7.50;;;5.00;;
3789;SDS011;1910;49.042;9.028;2023-08-12T00:17:24;9.83;;;6.37;;
3789;SDS011;1910;49.042;9.028;2023-08-12T00:19:50;6.37;;;3.57;;
3789;SDS011;1910;49.042;9.028;2023-08-12T00:22:15;9.13;;;4.97;;
3789;SDS011;1910;49.042;9.028;2023-08-12T00:24:41;4.10;;;3.43;;
3789;SDS011;1910;49.042;9.028;2023-08-12T00:27:07;13.30;;;4.37;;
3789;SDS011;1910;49.042;9.028;2023-08-12T00:29:33;10.30;;;4.80;;
3789;SDS011;1910;49.042;9.028;2023-08-12T00:31:59;10.83;;;4.83;;
3789;SDS011;1910;49.042;9.028;2023-08-12T00:34:25;8.37;;;5.83;;
3789;SDS011;1910;49.042;9.028;2023-08-12T00:36:51;10.13;;;7.80;;
3789;SDS011;1910;49.042;9.028;2023-08-12T00:39:16;14.73;;;8.10;;
3789;SDS011;1910;49.042;9.028;2023-08-12T00:41:42;10.17;;;6.10;;
3789;SDS011;1910;49.042;9.028;2023-08-12T00:44:07;8.83;;;7.60;;
3789;SDS011;1910;49.042;9.028;2023-08-12T00:46:33;13.20;;;8.83;;
3789;SDS011;1910;49.042;9.028;2023-08-12T00:48:59;13.27;;;8.13;;
3789;SDS011;1910;49.042;9.028;2023-08-12T00:51:25;8.67;;;7.77;;
3789;SDS011;1910;49.042;9.028;2023-08-12T00:53:51;11.20;;;9.33;;
3789;SDS011;1910;49.042;9.028;2023-08-12T00:56:18;7.97;;;7.13;;
3789;SDS011;1910;49.042;9.028;2023-08-12T00:58:45;11.33;;;7.47;;
3789;SDS011;1910;49.042;9.028;2023-08-12T01:01:11;13.10;;;10.20;;
3789;SDS011;1910;49.042;9.028;2023-08-12T01:03:38;12.73;;;9.30;;
3789;SDS011;1910;49.042;9.028;2023-08-12T01:06:03;10.43;;;8.43;;
3789;SDS011;1910;49.042;9.028;2023-08-12T01:08:30;12.33;;;8.80;;
3789;SDS011;1910;49.042;9.028;2023-08-12T01:10:58;10.93;;;7.37;;
3789;SDS011;1910;49.042;9.028;2023-08-12T01:13:49;10.67;;;5.53;;
3789;SDS011;1910;49.042;9.028;2023-08-12T01:16:26;8.23;;;6.50;;
3789;SDS011;1910;49.042;9.028;2023-08-12T01:18:55;7.87;;;6.90;;
3789;SDS011;1910;49.042;9.028;2023-08-12T01:21:22;11.37;;;7.60;;
3789;SDS011;1910;49.042;9.028;2023-08-12T01:23:51;16.43;;;7.50;;
3789;SDS011;1910;49.042;9.028;2023-08-12T01:26:17;11.53;;;9.50;;
3789;SDS011;1910;49.042;9.028;2023-08-12T01:28:43;14.13;;;9.20;;
3789;SDS011;1910;49.042;9.028;2023-08-12T01:31:10;12.10;;;10.63;;
3789;SDS011;1910;49.042;9.028;2023-08-12T01:33:46;9.57;;;8.03;;
3789;SDS011;1910;49.042;9.028;2023-08-12T01:36:16;8.40;;;6.97;;
3789;SDS011;1910;49.042;9.028;2023-08-12T01:38:43;8.60;;;6.77;;
3789;SDS011;1910;49.042;9.028;2023-08-12T01:41:11;11.40;;;6.90;;
3789;SDS011;1910;49.042;9.028;2023-08-12T01:43:39;8.70;;;6.70;;
3789;SDS011;1910;49.042;9.028;2023-08-12T01:46:06;10.47;;;7.10;;
3789;SDS011;1910;49.042;9.028;2023-08-12T01:48:32;8.17;;;6.90;;
3789;SDS011;1910;49.042;9.028;2023-08-12T01:50:57;11.00;;;7.93;;
3789;SDS011;1910;49.042;9.028;2023-08-12T01:53:23;11.97;;;9.77;;
3789;SDS011;1910;49.042;9.028;2023-08-12T01:55:49;16.83;;;10.40;;
3789;SDS011;1910;49.042;9.028;2023-08-12T01:58:15;14.60;;;11.77;;
3789;SDS011;1910;49.042;9.028;2023-08-12T02:00:41;16.60;;;10.63;;
3789;SDS011;1910;49.042;9.028;2023-08-12T02:03:06;12.13;;;9.47;;
3789;SDS011;1910;49.042;9.028;2023-08-12T02:05:32;18.03;;;10.90;;
3789;SDS011;1910;49.042;9.028;2023-08-12T02:07:58;10.27;;;7.57;;
3789;SDS011;1910;49.042;9.028;2023-08-12T02:10:23;12.33;;;8.30;;
3789;SDS011;1910;49.042;9.028;2023-08-12T02:12:49;10.47;;;7.57;;
3789;SDS011;1910;49.042;9.028;2023-08-12T02:15:15;11.80;;;8.10;;
3789;SDS011;1910;49.042;9.028;2023-08-12T02:17:40;12.00;;;7.80;;
3789;SDS011;1910;49.042;9.028;2023-08-12T02:20:06;20.23;;;9.77;;
3789;SDS011;1910;49.042;9.028;2023-08-12T02:22:32;9.63;;;8.30;;
3789;SDS011;1910;49.042;9.028;2023-08-12T02:24:57;15.07;;;9.30;;
3789;SDS011;1910;49.042;9.028;2023-08-12T02:27:23;12.43;;;8.03;;
3789;SDS011;1910;49.042;9.028;2023-08-12T02:29:48;11.00;;;8.53;;
3789;SDS011;1910;49.042;9.028;2023-08-12T02:32:14;13.23;;;8.67;;
3789;SDS011;1910;49.042;9.028;2023-08-12T02:34:39;12.90;;;8.30;;
3789;SDS011;1910;49.042;9.028;2023-08-12T02:37:05;11.83;;;9.03;;
3789;SDS011;1910;49.042;9.028;2023-08-12T02:39:30;10.50;;;8.87;;
3789;SDS011;1910;49.042;9.028;2023-08-12T02:41:56;11.70;;;8.93;;
3789;SDS011;1910;49.042;9.028;2023-08-12T02:44:22;10.10;;;8.57;;
3789;SDS011;1910;49.042;9.028;2023-08-12T02:46:47;12.80;;;8.07;;
3789;SDS011;1910;49.042;9.028;2023-08-12T02:49:13;10.90;;;9.30;;
3789;SDS011;1910;49.042;9.028;2023-08-12T02:51:38;10.70;;;8.90;;
3789;SDS011;1910;49.042;9.028;2023-08-12T02:54:04;16.60;;;11.03;;
3789;SDS011;1910;49.042;9.028;2023-08-12T02:56:30;11.60;;;9.40;;
3789;SDS011;1910;49.042;9.028;2023-08-12T02:58:55;13.47;;;8.70;;
3789;SDS011;1910;49.042;9.028;2023-08-12T03:01:21;15.50;;;8.73;;
3789;SDS011;1910;49.042;9.028;2023-08-12T03:03:47;11.17;;;8.77;;
3789;SDS011;1910;49.042;9.028;2023-08-12T03:06:14;11.27;;;8.47;;
3789;SDS011;1910;49.042;9.028;2023-08-12T03:08:39;13.83;;;8.83;;
3789;SDS011;1910;49.042;9.028;2023-08-12T03:11:05;10.20;;;8.50;;
3789;SDS011;1910;49.042;9.028;2023-08-12T03:13:30;15.23;;;10.53;;
3789;SDS011;1910;49.042;9.028;2023-08-12T03:15:56;13.20;;;9.77;;
3789;SDS011;1910;49.042;9.028;2023-08-12T03:18:21;13.43;;;8.90;;
3789;SDS011;1910;49.042;9.028;2023-08-12T03:20:47;11.43;;;8.60;;
3789;SDS011;1910;49.042;9.028;2023-08-12T03:23:14;12.30;;;8.70;;
3789;SDS011;1910;49.042;9.028;2023-08-12T03:25:40;11.60;;;9.83;;
3789;SDS011;1910;49.042;9.028;2023-08-12T03:28:05;13.00;;;9.30;;
3789;SDS011;1910;49.042;9.028;2023-08-12T03:30:31;17.33;;;10.37;;
3789;SDS011;1910;49.042;9.028;2023-08-12T03:32:56;14.53;;;9.47;;
3789;SDS011;1910;49.042;9.028;2023-08-12T03:35:22;10.27;;;9.10;;
3789;SDS011;1910;49.042;9.028;2023-08-12T03:37:48;13.87;;;9.83;;
3789;SDS011;1910;49.042;9.028;2023-08-12T03:40:13;14.27;;;10.63;;
3789;SDS011;1910;49.042;9.028;2023-08-12T03:42:39;14.50;;;11.23;;
3789;SDS011;1910;49.042;9.028;2023-08-12T03:45:04;15.00;;;11.70;;
3789;SDS011;1910;49.042;9.028;2023-08-12T03:47:30;13.73;;;10.30;;
3789;SDS011;1910;49.042;9.028;2023-08-12T03:49:56;19.80;;;10.70;;
3789;SDS011;1910;49.042;9.028;2023-08-12T03:52:22;11.77;;;10.43;;
3789;SDS011;1910;49.042;9.028;2023-08-12T03:54:47;15.73;;;9.60;;
3789;SDS011;1910;49.042;9.028;2023-08-12T03:57:13;11.77;;;10.40;;
3789;SDS011;1910;49.042;9.028;2023-08-12T03:59:38;12.20;;;9.50;;
3789;SDS011;1910;49.042;9.028;2023-08-12T04:02:04;11.80;;;9.93;;
3789;SDS011;1910;49.042;9.028;2023-08-12T04:04:29;12.30;;;10.00;;
3789;SDS011;1910;49.042;9.028;2023-08-12T04:06:55;14.97;;;10.07;;
3789;SDS011;1910;49.042;9.028;2023-08-12T04:09:20;14.37;;;10.13;;
3789;SDS011;1910;49.042;9.028;2023-08-12T04:11:46;13.97;;;9.70;;
3789;SDS011;1910;49.042;9.028;2023-08-12T04:14:14;14.87;;;9.30;;
3789;SDS011;1910;49.042;9.028;2023-08-12T04:16:40;9.10;;;8.20;;
3789;SDS011;1910;49.042;9.028;2023-08-12T04:19:06;9.80;;;8.80;;
3789;SDS011;1910;49.042;9.028;2023-08-12T04:21:31;13.40;;;8.33;;
3789;SDS011;1910;49.042;9.028;2023-08-12T04:23:57;10.30;;;7.93;;
3789;SDS011;1910;49.042;9.028;2023-08-12T04:26:22;9.63;;;7.70;;
3789;SDS011;1910;49.042;9.028;2023-08-12T04:28:48;12.70;;;7.77;;
3789;SDS011;1910;49.042;9.028;2023-08-12T04:31:13;12.37;;;8.53;;
3789;SDS011;1910;49.042;9.028;2023-08-12T04:33:39;9.50;;;7.93;;
3789;SDS011;1910;49.042;9.028;2023-08-12T04:36:05;7.80;;;6.60;;
3789;SDS011;1910;49.042;9.028;2023-08-12T04:38:30;11.60;;;7.50;;
3789;SDS011;1910;49.042;9.028;2023-08-12T04:40:56;9.37;;;7.60;;
3789;SDS011;1910;49.042;9.028;2023-08-12T04:43:22;10.73;;;7.90;;
3789;SDS011;1910;49.042;9.028;2023-08-12T04:45:47;9.77;;;8.20;;
3789;SDS011;1910;49.042;9.028;2023-08-12T04:48:14;10.97;;;8.07;;
3789;SDS011;1910;49.042;9.028;2023-08-12T04:50:41;15.47;;;8.17;;
3789;SDS011;1910;49.042;9.028;2023-08-12T04:53:07;9.60;;;8.10;;
3789;SDS011;1910;49.042;9.028;2023-08-12T04:55:33;11.83;;;8.27;;
3789;SDS011;1910;49.042;9.028;2023-08-12T04:57:59;12.33;;;8.10;;
3789;SDS011;1910;49.042;9.028;2023-08-12T05:00:26;10.60;;;8.77;;
3789;SDS011;1910;49.042;9.028;2023-08-12T05:02:52;10.27;;;7.60;;
3789;SDS011;1910;49.042;9.028;2023-08-12T05:05:18;11.93;;;7.83;;
3789;SDS011;1910;49.042;9.028;2023-08-12T05:07:44;9.73;;;8.17;;
3789;SDS011;1910;49.042;9.028;2023-08-12T05:10:13;9.50;;;8.10;;
3789;SDS011;1910;49.042;9.028;2023-08-12T05:12:42;11.00;;;7.73;;
3789;SDS011;1910;49.042;9.028;2023-08-12T05:15:08;9.23;;;8.20;;
3789;SDS011;1910;49.042;9.028;2023-08-12T05:17:35;12.50;;;7.90;;
3789;SDS011;1910;49.042;9.028;2023-08-12T05:20:00;13.70;;;7.40;;
3789;SDS011;1910;49.042;9.028;2023-08-12T05:22:26;9.43;;;8.00;;
3789;SDS011;1910;49.042;9.028;2023-08-12T05:24:51;8.60;;;7.70;;
3789;SDS011;1910;49.042;9.028;2023-08-12T05:27:17;8.40;;;7.57;;
3789;SDS011;1910;49.042;9.028;2023-08-12T05:29:42;9.00;;;7.50;;
3789;SDS011;1910;49.042;9.028;2023-08-12T05:32:08;8.20;;;6.83;;
3789;SDS011;1910;49.042;9.028;2023-08-12T05:34:33;10.30;;;7.97;;
3789;SDS011;1910;49.042;9.028;2023-08-12T05:36:59;10.30;;;7.47;;
3789;SDS011;1910;49.042;9.028;2023-08-12T05:39:24;10.47;;;6.80;;
3789;SDS011;1910;49.042;9.028;2023-08-12T05:41:50;13.40;;;7.23;;
3789;SDS011;1910;49.042;9.028;2023-08-12T05:44:17;8.37;;;7.53;;
3789;SDS011;1910;49.042;9.028;2023-08-12T05:46:43;11.60;;;8.23;;
3789;SDS011;1910;49.042;9.028;2023-08-12T05:49:08;12.03;;;9.27;;
3789;SDS011;1910;49.042;9.028;2023-08-12T05:51:34;14.00;;;9.60;;
3789;SDS011;1910;49.042;9.028;2023-08-12T05:54:00;9.00;;;8.10;;
3789;SDS011;1910;49.042;9.028;2023-08-12T05:56:25;9.90;;;8.17;;
3789;SDS011;1910;49.042;9.028;2023-08-12T05:58:51;18.83;;;8.20;;
3789;SDS011;1910;49.042;9.028;2023-08-12T06:01:16;7.70;;;6.87;;
3789;SDS011;1910;49.042;9.028;2023-08-12T06:03:42;8.90;;;7.40;;
3789;SDS011;1910;49.042;9.028;2023-08-12T06:06:08;9.30;;;7.60;;
3789;SDS011;1910;49.042;9.028;2023-08-12T06:08:33;8.53;;;7.13;;
3789;SDS011;1910;49.042;9.028;2023-08-12T06:10:59;8.60;;;7.13;;
3789;SDS011;1910;49.042;9.028;2023-08-12T06:13:25;13.43;;;7.87;;
3789;SDS011;1910;49.042;9.028;2023-08-12T06:15:50;15.13;;;8.00;;
3789;SDS011;1910;49.042;9.028;2023-08-12T06:18:17;11.90;;;8.17;;
3789;SDS011;1910;49.042;9.028;2023-08-12T06:20:42;13.50;;;9.20;;
3789;SDS011;1910;49.042;9.028;2023-08-12T06:23:08;10.90;;;9.43;;
3789;SDS011;1910;49.042;9.028;2023-08-12T06:25:33;14.13;;;10.13;;
3789;SDS011;1910;49.042;9.028;2023-08-12T06:28:01;11.60;;;9.70;;
3789;SDS011;1910;49.042;9.028;2023-08-12T06:30:29;9.30;;;8.40;;
3789;SDS011;1910;49.042;9.028;2023-08-12T06:32:54;9.70;;;8.70;;
3789;SDS011;1910;49.042;9.028;2023-08-12T06:35:20;11.17;;;8.40;;
3789;SDS011;1910;49.042;9.028;2023-08-12T06:37:46;10.83;;;8.70;;
3789;SDS011;1910;49.042;9.028;2023-08-12T06:40:12;11.00;;;9.07;;
3789;SDS011;1910;49.042;9.028;2023-08-12T06:42:37;14.00;;;9.40;;
3789;SDS011;1910;49.042;9.028;2023-08-12T06:45:03;14.50;;;9.57;;
3789;SDS011;1910;49.042;9.028;2023-08-12T06:47:29;12.23;;;9.90;;
3789;SDS011;1910;49.042;9.028;2023-08-12T06:49:55;11.73;;;9.07;;
3789;SDS011;1910;49.042;9.028;2023-08-12T06:52:20;11.93;;;9.03;;
3789;SDS011;1910;49.042;9.028;2023-08-12T06:54:46;24.17;;;13.20;;
3789;SDS011;1910;49.042;9.028;2023-08-12T06:57:11;16.10;;;11.13;;
3789;SDS011;1910;49.042;9.028;2023-08-12T06:59:37;12.37;;;9.40;;
3789;SDS011;1910;49.042;9.028;2023-08-12T07:02:03;11.23;;;8.90;;
3789;SDS011;1910;49.042;9.028;2023-08-12T07:04:29;8.17;;;7.33;;
3789;SDS011;1910;49.042;9.028;2023-08-12T07:06:55;16.90;;;9.67;;
3789;SDS011;1910;49.042;9.028;2023-08-12T07:09:20;26.10;;;11.90;;
3789;SDS011;1910;49.042;9.028;2023-08-12T07:11:46;12.20;;;7.57;;
3789;SDS011;1910;49.042;9.028;2023-08-12T07:14:11;10.20;;;7.60;;
3789;SDS011;1910;49.042;9.028;2023-08-12T07:16:37;12.57;;;8.60;;
3789;SDS011;1910;49.042;9.028;2023-08-12T07:19:02;9.13;;;6.53;;
3789;SDS011;1910;49.042;9.028;2023-08-12T07:21:28;7.83;;;6.17;;
3789;SDS011;1910;49.042;9.028;2023-08-12T07:23:53;7.10;;;6.07;;
3789;SDS011;1910;49.042;9.028;2023-08-12T07:26:19;6.73;;;6.07;;
3789;SDS011;1910;49.042;9.028;2023-08-12T07:28:44;8.20;;;6.37;;
3789;SDS011;1910;49.042;9.028;2023-08-12T07:31:10;7.00;;;6.30;;
3789;SDS011;1910;49.042;9.028;2023-08-12T07:33:36;7.97;;;6.20;;
3789;SDS011;1910;49.042;9.028;2023-08-12T07:36:01;8.30;;;6.27;;
3789;SDS011;1910;49.042;9.028;2023-08-12T07:38:27;6.80;;;6.10;;
3789;SDS011;1910;49.042;9.028;2023-08-12T07:40:53;8.83;;;5.73;;
3789;SDS011;1910;49.042;9.028;2023-08-12T07:43:19;6.90;;;6.20;;
3789;SDS011;1910;49.042;9.028;2023-08-12T07:45:45;7.27;;;6.57;;
3789;SDS011;1910;49.042;9.028;2023-08-12T07:48:15;7.27;;;6.57;;
3789;SDS011;1910;49.042;9.028;2023-08-12T07:50:40;8.93;;;7.20;;
3789;SDS011;1910;49.042;9.028;2023-08-12T07:53:06;7.80;;;6.60;;
3789;SDS011;1910;49.042;9.028;2023-08-12T07:55:31;10.43;;;7.10;;
3789;SDS011;1910;49.042;9.028;2023-08-12T07:57:57;8.03;;;6.27;;
3789;SDS011;1910;49.042;9.028;2023-08-12T08:00:22;10.10;;;6.87;;
3789;SDS011;1910;49.042;9.028;2023-08-12T08:02:48;10.27;;;6.73;;
3789;SDS011;1910;49.042;9.028;2023-08-12T08:05:13;8.30;;;7.37;;
3789;SDS011;1910;49.042;9.028;2023-08-12T08:07:39;8.27;;;7.57;;
3789;SDS011;1910;49.042;9.028;2023-08-12T08:10:05;7.03;;;6.33;;
3789;SDS011;1910;49.042;9.028;2023-08-12T08:12:31;9.93;;;6.57;;
3789;SDS011;1910;49.042;9.028;2023-08-12T08:14:56;7.93;;;6.43;;
3789;SDS011;1910;49.042;9.028;2023-08-12T08:17:22;12.23;;;6.13;;
3789;SDS011;1910;49.042;9.028;2023-08-12T08:19:47;8.13;;;6.90;;
3789;SDS011;1910;49.042;9.028;2023-08-12T08:22:13;9.77;;;7.17;;
3789;SDS011;1910;49.042;9.028;2023-08-12T08:24:38;7.83;;;6.67;;
3789;SDS011;1910;49.042;9.028;2023-08-12T08:27:04;7.73;;;7.00;;
3789;SDS011;1910;49.042;9.028;2023-08-12T08:29:30;7.53;;;6.67;;
3789;SDS011;1910;49.042;9.028;2023-08-12T08:31:55;7.30;;;6.53;;
3789;SDS011;1910;49.042;9.028;2023-08-12T08:34:21;8.87;;;6.50;;
3789;SDS011;1910;49.042;9.028;2023-08-12T08:36:46;7.60;;;6.07;;
3789;SDS011;1910;49.042;9.028;2023-08-12T08:39:12;7.87;;;7.13;;
3789;SDS011;1910;49.042;9.028;2023-08-12T08:41:39;10.23;;;6.97;;
3789;SDS011;1910;49.042;9.028;2023-08-12T08:44:06;8.87;;;6.20;;
3789;SDS011;1910;49.042;9.028;2023-08-12T08:46:34;8.53;;;6.60;;
3789;SDS011;1910;49.042;9.028;2023-08-12T08:49:00;8.40;;;6.10;;
3789;SDS011;1910;49.042;9.028;2023-08-12T08:51:26;7.77;;;6.17;;
3789;SDS011;1910;49.042;9.028;2023-08-12T08:53:55;9.60;;;6.67;;
3789;SDS011;1910;49.042;9.028;2023-08-12T08:56:21;7.13;;;6.43;;
3789;SDS011;1910;49.042;9.028;2023-08-12T08:58:47;7.80;;;5.97;;
3789;SDS011;1910;49.042;9.028;2023-08-12T09:01:14;9.83;;;6.87;;
3789;SDS011;1910;49.042;9.028;2023-08-12T09:03:42;8.40;;;5.90;;
3789;SDS011;1910;49.042;9.028;2023-08-12T09:06:08;6.60;;;5.80;;
3789;SDS011;1910;49.042;9.028;2023-08-12T09:08:34;7.30;;;5.73;;
3789;SDS011;1910;49.042;9.028;2023-08-12T09:11:02;8.70;;;6.10;;
3789;SDS011;1910;49.042;9.028;2023-08-12T09:13:29;8.17;;;5.90;;
3789;SDS011;1910;49.042;9.028;2023-08-12T09:26:19;7.13;;;6.33;;
3789;SDS011;1910;49.042;9.028;2023-08-12T09:28:45;7.40;;;5.70;;
3789;SDS011;1910;49.042;9.028;2023-08-12T09:31:22;7.23;;;6.47;;
3789;SDS011;1910;49.042;9.028;2023-08-12T09:33:58;10.57;;;6.37;;
3789;SDS011;1910;49.042;9.028;2023-08-12T09:36:28;6.70;;;6.00;;
3789;SDS011;1910;49.042;9.028;2023-08-12T09:38:55;11.03;;;5.73;;
3789;SDS011;1910;49.042;9.028;2023-08-12T09:41:23;8.17;;;5.80;;
3789;SDS011;1910;49.042;9.028;2023-08-12T09:43:50;6.10;;;5.60;;
3789;SDS011;1910;49.042;9.028;2023-08-12T09:46:16;7.30;;;6.60;;
3789;SDS011;1910;49.042;9.028;2023-08-12T09:48:42;8.17;;;5.97;;
3789;SDS011;1910;49.042;9.028;2023-08-12T09:51:08;9.33;;;5.37;;
3789;SDS011;1910;49.042;9.028;2023-08-12T09:53:34;9.30;;;6.53;;
3789;SDS011;1910;49.042;9.028;2023-08-12T09:56:02;7.43;;;6.67;;
3789;SDS011;1910;49.042;9.028;2023-08-12T09:58:33;10.33;;;7.70;;
3789;SDS011;1910;49.042;9.028;2023-08-12T10:01:01;7.77;;;6.47;;
3789;SDS011;1910;49.042;9.028;2023-08-12T10:03:28;6.67;;;5.97;;
3789;SDS011;1910;49.042;9.028;2023-08-12T10:05:54;6.23;;;5.63;;
3789;SDS011;1910;49.042;9.028;2023-08-12T10:08:21;7.93;;;6.37;;
3789;SDS011;1910;49.042;9.028;2023-08-12T10:10:47;7.97;;;6.30;;
3789;SDS011;1910;49.042;9.028;2023-08-12T10:13:13;8.57;;;7.30;;
3789;SDS011;1910;49.042;9.028;2023-08-12T10:15:40;6.37;;;5.77;;
3789;SDS011;1910;49.042;9.028;2023-08-12T10:18:06;14.77;;;7.83;;
3789;SDS011;1910;49.042;9.028;2023-08-12T10:20:33;6.60;;;5.60;;
3789;SDS011;1910;49.042;9.028;2023-08-12T10:23:01;6.07;;;5.47;;
3789;SDS011;1910;49.042;9.028;2023-08-12T10:25:31;8.43;;;6.50;;
3789;SDS011;1910;49.042;9.028;2023-08-12T10:27:57;7.20;;;6.30;;
3789;SDS011;1910;49.042;9.028;2023-08-12T10:30:23;7.60;;;6.20;;
3789;SDS011;1910;49.042;9.028;2023-08-12T10:32:49;7.27;;;6.50;;
3789;SDS011;1910;49.042;9.028;2023-08-12T10:35:15;6.93;;;6.23;;
3789;SDS011;1910;49.042;9.028;2023-08-12T10:37:41;7.13;;;6.43;;
3789;SDS011;1910;49.042;9.028;2023-08-12T10:40:18;7.03;;;6.33;;
3789;SDS011;1910;49.042;9.028;2023-08-12T10:42:47;8.13;;;6.40;;
3789;SDS011;1910;49.042;9.028;2023-08-12T10:45:14;7.03;;;6.03;;
3789;SDS011;1910;49.042;9.028;2023-08-12T10:50:17;7.43;;;5.60;;
3789;SDS011;1910;49.042;9.028;2023-08-12T10:52:48;6.63;;;6.03;;
3789;SDS011;1910;49.042;9.028;2023-08-12T11:03:14;7.00;;;6.30;;
3789;SDS011;1910;49.042;9.028;2023-08-12T11:05:40;6.80;;;6.20;;
3789;SDS011;1910;49.042;9.028;2023-08-12T11:08:05;8.30;;;6.83;;
3789;SDS011;1910;49.042;9.028;2023-08-12T11:10:34;7.90;;;7.10;;
3789;SDS011;1910;49.042;9.028;2023-08-12T11:13:00;6.93;;;6.13;;
3789;SDS011;1910;49.042;9.028;2023-08-12T11:15:35;5.93;;;5.43;;
3789;SDS011;1910;49.042;9.028;2023-08-12T11:18:03;7.33;;;5.97;;
3789;SDS011;1910;49.042;9.028;2023-08-12T11:20:29;7.77;;;6.43;;
3789;SDS011;1910;49.042;9.028;2023-08-12T11:22:56;8.67;;;5.83;;
3789;SDS011;1910;49.042;9.028;2023-08-12T11:25:23;7.60;;;6.47;;
3789;SDS011;1910;49.042;9.028;2023-08-12T11:27:50;6.73;;;6.03;;
3789;SDS011;1910;49.042;9.028;2023-08-12T11:30:17;6.70;;;5.40;;
3789;SDS011;1910;49.042;9.028;2023-08-12T11:32:44;10.40;;;5.20;;
3789;SDS011;1910;49.042;9.028;2023-08-12T11:35:12;7.50;;;5.30;;
3789;SDS011;1910;49.042;9.028;2023-08-12T11:37:39;4.43;;;4.03;;
3789;SDS011;1910;49.042;9.028;2023-08-12T11:40:06;9.13;;;5.53;;
3789;SDS011;1910;49.042;9.028;2023-08-12T11:42:37;5.73;;;5.13;;
3789;SDS011;1910;49.042;9.028;2023-08-12T11:45:04;6.63;;;5.53;;
3789;SDS011;1910;49.042;9.028;2023-08-12T11:47:31;9.23;;;6.20;;
3789;SDS011;1910;49.042;9.028;2023-08-12T11:49:58;9.20;;;5.83;;
3789;SDS011;1910;49.042;9.028;2023-08-12T11:52:23;6.37;;;5.77;;
3789;SDS011;1910;49.042;9.028;2023-08-12T11:54:50;8.30;;;5.40;;
3789;SDS011;1910;49.042;9.028;2023-08-12T11:57:16;6.47;;;5.07;;
3789;SDS011;1910;49.042;9.028;2023-08-12T11:59:42;11.37;;;6.30;;
3789;SDS011;1910;49.042;9.028;2023-08-12T12:02:08;6.77;;;6.07;;
3789;SDS011;1910;49.042;9.028;2023-08-12T12:04:35;5.87;;;5.23;;
3789;SDS011;1910;49.042;9.028;2023-08-12T12:07:00;5.90;;;5.27;;
3789;SDS011;1910;49.042;9.028;2023-08-12T12:09:31;7.40;;;4.63;;
3789;SDS011;1910;49.042;9.028;2023-08-12T12:11:57;10.03;;;5.13;;
3789;SDS011;1910;49.042;9.028;2023-08-12T12:14:24;6.87;;;4.67;;
3789;SDS011;1910;49.042;9.028;2023-08-12T12:16:49;5.80;;;4.67;;
3789;SDS011;1910;49.042;9.028;2023-08-12T12:19:22;9.63;;;4.80;;
3789;SDS011;1910;49.042;9.028;2023-08-12T12:21:52;5.23;;;4.73;;
3789;SDS011;1910;49.042;9.028;2023-08-12T12:24:18;7.17;;;5.50;;
3789;SDS011;1910;49.042;9.028;2023-08-12T12:26:45;6.73;;;5.20;;
3789;SDS011;1910;49.042;9.028;2023-08-12T12:29:14;6.43;;;5.60;;
3789;SDS011;1910;49.042;9.028;2023-08-12T12:31:40;9.97;;;5.00;;
3789;SDS011;1910;49.042;9.028;2023-08-12T12:34:06;7.27;;;6.37;;
3789;SDS011;1910;49.042;9.028;2023-08-12T12:36:35;6.30;;;5.27;;
3789;SDS011;1910;49.042;9.028;2023-08-12T12:39:04;8.40;;;5.30;;
3789;SDS011;1910;49.042;9.028;2023-08-12T12:41:31;6.23;;;4.90;;
3789;SDS011;1910;49.042;9.028;2023-08-12T12:44:00;9.83;;;5.47;;
3789;SDS011;1910;49.042;9.028;2023-08-12T12:46:26;6.83;;;5.37;;
3789;SDS011;1910;49.042;9.028;2023-08-12T12:48:53;7.00;;;5.00;;
3789;SDS011;1910;49.042;9.028;2023-08-12T12:51:18;8.27;;;6.43;;
3789;SDS011;1910;49.042;9.028;2023-08-12T12:53:44;7.90;;;6.43;;
3789;SDS011;1910;49.042;9.028;2023-08-12T12:56:17;7.77;;;6.90;;
3789;SDS011;1910;49.042;9.028;2023-08-12T12:58:50;8.57;;;6.33;;
3789;SDS011;1910;49.042;9.028;2023-08-12T13:01:26;11.30;;;6.20;;
3789;SDS011;1910;49.042;9.028;2023-08-12T13:04:12;6.37;;;5.77;;
3789;SDS011;1910;49.042;9.028;2023-08-12T13:06:38;6.97;;;6.27;;
3789;SDS011;1910;49.042;9.028;2023-08-12T13:09:05;9.57;;;5.43;;
3789;SDS011;1910;49.042;9.028;2023-08-12T13:11:31;6.80;;;4.57;;
3789;SDS011;1910;49.042;9.028;2023-08-12T13:13:57;6.83;;;4.50;;
3789;SDS011;1910;49.042;9.028;2023-08-12T13:16:23;5.40;;;4.90;;
3789;SDS011;1910;49.042;9.028;2023-08-12T13:18:49;6.10;;;4.50;;
3789;SDS011;1910;49.042;9.028;2023-08-12T13:21:15;6.67;;;5.27;;
3789;SDS011;1910;49.042;9.028;2023-08-12T13:23:41;7.90;;;4.17;;
3789;SDS011;1910;49.042;9.028;2023-08-12T13:26:06;7.93;;;6.17;;
3789;SDS011;1910;49.042;9.028;2023-08-12T13:28:32;5.47;;;4.37;;
3789;SDS011;1910;49.042;9.028;2023-08-12T13:30:57;8.70;;;6.07;;
3789;SDS011;1910;49.042;9.028;2023-08-12T13:33:23;4.97;;;4.47;;
3789;SDS011;1910;49.042;9.028;2023-08-12T13:35:49;5.93;;;4.77;;
3789;SDS011;1910;49.042;9.028;2023-08-12T13:38:14;6.00;;;4.10;;
3789;SDS011;1910;49.042;9.028;2023-08-12T13:40:39;4.50;;;3.90;;
3789;SDS011;1910;49.042;9.028;2023-08-12T13:43:05;8.90;;;5.07;;
3789;SDS011;1910;49.042;9.028;2023-08-12T13:45:31;7.50;;;4.77;;
3789;SDS011;1910;49.042;9.028;2023-08-12T13:47:56;5.47;;;3.70;;
3789;SDS011;1910;49.042;9.028;2023-08-12T13:50:22;6.47;;;4.37;;
3789;SDS011;1910;49.042;9.028;2023-08-12T13:52:47;8.70;;;4.37;;
3789;SDS011;1910;49.042;9.028;2023-08-12T13:55:14;9.83;;;4.57;;
3789;SDS011;1910;49.042;9.028;2023-08-12T13:57:39;6.60;;;4.63;;
3789;SDS011;1910;49.042;9.028;2023-08-12T14:00:05;6.33;;;4.63;;
3789;SDS011;1910;49.042;9.028;2023-08-12T14:02:34;5.00;;;4.60;;
3789;SDS011;1910;49.042;9.028;2023-08-12T14:05:02;10.43;;;4.90;;
3789;SDS011;1910;49.042;9.028;2023-08-12T14:07:29;4.80;;;4.07;;
3789;SDS011;1910;49.042;9.028;2023-08-12T14:09:55;5.03;;;4.57;;
3789;SDS011;1910;49.042;9.028;2023-08-12T14:12:21;6.40;;;4.90;;
3789;SDS011;1910;49.042;9.028;2023-08-12T14:14:46;5.10;;;4.60;;
3789;SDS011;1910;49.042;9.028;2023-08-12T14:17:13;6.40;;;5.23;;
3789;SDS011;1910;49.042;9.028;2023-08-12T14:19:41;8.43;;;5.47;;
3789;SDS011;1910;49.042;9.028;2023-08-12T14:22:07;5.70;;;4.20;;
3789;SDS011;1910;49.042;9.028;2023-08-12T14:24:33;5.77;;;5.23;;
3789;SDS011;1910;49.042;9.028;2023-08-12T14:26:59;5.80;;;4.63;;
3789;SDS011;1910;49.042;9.028;2023-08-12T14:29:24;5.33;;;4.10;;
3789;SDS011;1910;49.042;9.028;2023-08-12T14:31:50;5.27;;;4.77;;
3789;SDS011;1910;49.042;9.028;2023-08-12T14:34:17;10.40;;;5.03;;
3789;SDS011;1910;49.042;9.028;2023-08-12T14:36:42;7.90;;;4.77;;
3789;SDS011;1910;49.042;9.028;2023-08-12T14:39:08;5.10;;;4.40;;
3789;SDS011;1910;49.042;9.028;2023-08-12T14:41:33;7.57;;;4.93;;
3789;SDS011;1910;49.042;9.028;2023-08-12T14:43:59;5.27;;;4.73;;
3789;SDS011;1910;49.042;9.028;2023-08-12T14:46:24;4.97;;;4.27;;
3789;SDS011;1910;49.042;9.028;2023-08-12T14:48:50;6.90;;;4.83;;
3789;SDS011;1910;49.042;9.028;2023-08-12T14:51:18;5.37;;;4.80;;
3789;SDS011;1910;49.042;9.028;2023-08-12T14:53:44;9.30;;;5.63;;
3789;SDS011;1910;49.042;9.028;2023-08-12T14:56:11;5.83;;;4.80;;
3789;SDS011;1910;49.042;9.028;2023-08-12T14:58:36;6.13;;;4.77;;
3789;SDS011;1910;49.042;9.028;2023-08-12T15:01:02;6.23;;;5.10;;
3789;SDS011;1910;49.042;9.028;2023-08-12T15:03:30;6.13;;;4.93;;
3789;SDS011;1910;49.042;9.028;2023-08-12T15:05:59;6.33;;;4.93;;
3789;SDS011;1910;49.042;9.028;2023-08-12T15:11:02;7.47;;;4.43;;
3789;SDS011;1910;49.042;9.028;2023-08-12T15:13:27;5.70;;;4.50;;
3789;SDS011;1910;49.042;9.028;2023-08-12T15:15:54;7.50;;;5.10;;
3789;SDS011;1910;49.042;9.028;2023-08-12T15:18:20;6.60;;;4.23;;
3789;SDS011;1910;49.042;9.028;2023-08-12T15:20:45;5.20;;;4.70;;
3789;SDS011;1910;49.042;9.028;2023-08-12T15:23:11;12.53;;;5.23;;
3789;SDS011;1910;49.042;9.028;2023-08-12T15:25:36;9.37;;;5.27;;
3789;SDS011;1910;49.042;9.028;2023-08-12T15:28:02;7.30;;;5.37;;